sensor_id;sensor_type;location;lat;lon;timestamp;temperature;humidity
33594;DHT22;19920;52.242;20.940;2023-07-13T00:02:10;19.10;99.90
33594;DHT22;19920;52.242;20.940;2023-07-13T00:04:35;19.10;99.90
33594;DHT22;19920;52.242;20.940;2023-07-13T00:07:01;19.10;99.90
33594;DHT22;19920;52.242;20.940;2023-07-13T00:09:28;19.00;99.90
33594;DHT22;19920;52.242;20.940;2023-07-13T00:11:56;19.00;99.90
33594;DHT22;19920;52.242;20.940;2023-07-13T00:14:23;19.00;99.90
33594;DHT22;19920;52.242;20.940;2023-07-13T00:16:49;19.00;99.90
33594;DHT22;19920;52.242;20.940;2023-07-13T00:19:15;19.00;99.90
33594;DHT22;19920;52.242;20.940;2023-07-13T00:21:41;19.00;99.90
33594;DHT22;19920;52.242;20.940;2023-07-13T00:24:09;19.00;99.90
33594;DHT22;19920;52.242;20.940;2023-07-13T00:26:38;18.90;99.90
33594;DHT22;19920;52.242;20.940;2023-07-13T00:29:04;19.00;99.90
33594;DHT22;19920;52.242;20.940;2023-07-13T00:31:33;18.90;99.90
33594;DHT22;19920;52.242;20.940;2023-07-13T00:33:59;18.90;99.90
33594;DHT22;19920;52.242;20.940;2023-07-13T00:36:25;18.80;99.90
33594;DHT22;19920;52.242;20.940;2023-07-13T00:38:51;18.80;99.90
33594;DHT22;19920;52.242;20.940;2023-07-13T00:41:18;18.80;99.90
33594;DHT22;19920;52.242;20.940;2023-07-13T00:43:44;18.80;99.90
33594;DHT22;19920;52.242;20.940;2023-07-13T00:46:32;18.90;99.90
33594;DHT22;19920;52.242;20.940;2023-07-13T00:49:04;19.00;99.90
33594;DHT22;19920;52.242;20.940;2023-07-13T00:51:40;18.90;99.90
33594;DHT22;19920;52.242;20.940;2023-07-13T00:54:15;18.90;99.90
33594;DHT22;19920;52.242;20.940;2023-07-13T00:56:43;18.90;99.90
33594;DHT22;19920;52.242;20.940;2023-07-13T00:59:11;18.80;99.90
33594;DHT22;19920;52.242;20.940;2023-07-13T01:01:37;18.90;99.90
33594;DHT22;19920;52.242;20.940;2023-07-13T01:04:05;18.80;99.90
33594;DHT22;19920;52.242;20.940;2023-07-13T01:06:37;18.80;99.90
33594;DHT22;19920;52.242;20.940;2023-07-13T01:09:04;18.70;99.90
33594;DHT22;19920;52.242;20.940;2023-07-13T01:11:30;18.80;99.90
33594;DHT22;19920;52.242;20.940;2023-07-13T01:13:55;18.70;99.90
33594;DHT22;19920;52.242;20.940;2023-07-13T01:16:32;18.70;99.90
33594;DHT22;19920;52.242;20.940;2023-07-13T01:18:58;18.70;99.90
33594;DHT22;19920;52.242;20.940;2023-07-13T01:21:29;18.70;99.90
33594;DHT22;19920;52.242;20.940;2023-07-13T01:23:57;18.70;99.90
33594;DHT22;19920;52.242;20.940;2023-07-13T01:26:23;18.80;99.90
33594;DHT22;19920;52.242;20.940;2023-07-13T01:28:49;18.70;99.90
33594;DHT22;19920;52.242;20.940;2023-07-13T01:31:14;18.80;99.90
33594;DHT22;19920;52.242;20.940;2023-07-13T01:33:40;18.70;99.90
33594;DHT22;19920;52.242;20.940;2023-07-13T01:36:07;18.80;99.90
33594;DHT22;19920;52.242;20.940;2023-07-13T01:38:34;18.80;99.90
33594;DHT22;19920;52.242;20.940;2023-07-13T01:41:00;18.80;99.90
33594;DHT22;19920;52.242;20.940;2023-07-13T01:43:26;18.80;99.90
33594;DHT22;19920;52.242;20.940;2023-07-13T01:45:51;18.80;99.90
33594;DHT22;19920;52.242;20.940;2023-07-13T01:48:17;18.80;99.90
33594;DHT22;19920;52.242;20.940;2023-07-13T01:50:42;18.80;99.90
33594;DHT22;19920;52.242;20.940;2023-07-13T01:53:08;18.80;99.90
33594;DHT22;19920;52.242;20.940;2023-07-13T01:55:35;18.80;99.90
33594;DHT22;19920;52.242;20.940;2023-07-13T01:58:01;18.80;99.90
33594;DHT22;19920;52.242;20.940;2023-07-13T02:00:26;18.80;99.90
33594;DHT22;19920;52.242;20.940;2023-07-13T02:02:52;18.80;99.90
33594;DHT22;19920;52.242;20.940;2023-07-13T02:05:18;18.70;99.90
33594;DHT22;19920;52.242;20.940;2023-07-13T02:07:43;18.70;99.90
33594;DHT22;19920;52.242;20.940;2023-07-13T02:10:10;18.70;99.90
33594;DHT22;19920;52.242;20.940;2023-07-13T02:12:36;18.70;99.90
33594;DHT22;19920;52.242;20.940;2023-07-13T02:15:02;18.70;99.90
33594;DHT22;19920;52.242;20.940;2023-07-13T02:17:28;18.60;99.90
33594;DHT22;19920;52.242;20.940;2023-07-13T02:19:54;18.80;99.90
33594;DHT22;19920;52.242;20.940;2023-07-13T02:22:20;18.80;99.90
33594;DHT22;19920;52.242;20.940;2023-07-13T02:24:46;18.80;99.90
33594;DHT22;19920;52.242;20.940;2023-07-13T02:27:11;18.80;99.90
33594;DHT22;19920;52.242;20.940;2023-07-13T02:29:37;18.80;99.90
33594;DHT22;19920;52.242;20.940;2023-07-13T02:32:03;18.80;99.90
33594;DHT22;19920;52.242;20.940;2023-07-13T02:34:30;18.80;99.90
33594;DHT22;19920;52.242;20.940;2023-07-13T02:36:55;18.80;99.90
33594;DHT22;19920;52.242;20.940;2023-07-13T02:39:21;18.90;99.90
33594;DHT22;19920;52.242;20.940;2023-07-13T02:41:46;18.90;99.90
33594;DHT22;19920;52.242;20.940;2023-07-13T02:44:13;18.90;99.90
33594;DHT22;19920;52.242;20.940;2023-07-13T02:46:39;18.90;99.90
33594;DHT22;19920;52.242;20.940;2023-07-13T02:49:05;18.90;99.90
33594;DHT22;19920;52.242;20.940;2023-07-13T02:51:31;18.90;99.90
33594;DHT22;19920;52.242;20.940;2023-07-13T02:54:02;18.90;99.90
33594;DHT22;19920;52.242;20.940;2023-07-13T02:56:30;18.80;99.90
33594;DHT22;19920;52.242;20.940;2023-07-13T02:58:57;18.80;99.90
33594;DHT22;19920;52.242;20.940;2023-07-13T03:01:23;18.80;99.90
33594;DHT22;19920;52.242;20.940;2023-07-13T03:03:50;18.80;99.90
33594;DHT22;19920;52.242;20.940;2023-07-13T03:06:16;18.70;99.90
33594;DHT22;19920;52.242;20.940;2023-07-13T03:08:43;18.70;99.90
33594;DHT22;19920;52.242;20.940;2023-07-13T03:11:12;18.60;99.90
33594;DHT22;19920;52.242;20.940;2023-07-13T03:13:39;18.60;99.90
33594;DHT22;19920;52.242;20.940;2023-07-13T03:16:05;18.60;99.90
33594;DHT22;19920;52.242;20.940;2023-07-13T03:18:31;18.60;99.90
33594;DHT22;19920;52.242;20.940;2023-07-13T03:20:57;18.50;99.90
33594;DHT22;19920;52.242;20.940;2023-07-13T03:23:23;18.60;99.90
33594;DHT22;19920;52.242;20.940;2023-07-13T03:25:48;18.60;99.90
33594;DHT22;19920;52.242;20.940;2023-07-13T03:28:15;18.60;99.90
33594;DHT22;19920;52.242;20.940;2023-07-13T03:30:41;18.60;99.90
33594;DHT22;19920;52.242;20.940;2023-07-13T03:33:07;18.60;99.90
33594;DHT22;19920;52.242;20.940;2023-07-13T03:35:35;18.50;99.90
33594;DHT22;19920;52.242;20.940;2023-07-13T03:38:01;18.60;99.90
33594;DHT22;19920;52.242;20.940;2023-07-13T03:40:27;18.60;99.90
33594;DHT22;19920;52.242;20.940;2023-07-13T03:42:53;18.50;99.90
33594;DHT22;19920;52.242;20.940;2023-07-13T03:45:19;18.60;99.90
33594;DHT22;19920;52.242;20.940;2023-07-13T03:47:45;18.70;99.90
33594;DHT22;19920;52.242;20.940;2023-07-13T03:50:11;18.70;99.90
33594;DHT22;19920;52.242;20.940;2023-07-13T03:52:37;18.80;99.90
33594;DHT22;19920;52.242;20.940;2023-07-13T03:55:03;18.90;99.90
33594;DHT22;19920;52.242;20.940;2023-07-13T03:57:28;19.00;99.90
33594;DHT22;19920;52.242;20.940;2023-07-13T03:59:54;19.10;99.90
33594;DHT22;19920;52.242;20.940;2023-07-13T04:02:20;19.10;99.90
33594;DHT22;19920;52.242;20.940;2023-07-13T04:04:46;19.30;99.90
33594;DHT22;19920;52.242;20.940;2023-07-13T04:07:11;19.30;99.90
33594;DHT22;19920;52.242;20.940;2023-07-13T04:09:37;19.40;99.90
33594;DHT22;19920;52.242;20.940;2023-07-13T04:12:04;19.50;99.90
33594;DHT22;19920;52.242;20.940;2023-07-13T04:14:29;19.60;99.90
33594;DHT22;19920;52.242;20.940;2023-07-13T04:16:55;19.80;99.90
33594;DHT22;19920;52.242;20.940;2023-07-13T04:19:21;20.00;99.90
33594;DHT22;19920;52.242;20.940;2023-07-13T04:21:47;20.20;99.90
33594;DHT22;19920;52.242;20.940;2023-07-13T04:24:13;20.40;99.90
33594;DHT22;19920;52.242;20.940;2023-07-13T04:26:39;20.60;99.90
33594;DHT22;19920;52.242;20.940;2023-07-13T04:29:05;20.70;99.90
33594;DHT22;19920;52.242;20.940;2023-07-13T04:31:31;20.80;99.90
33594;DHT22;19920;52.242;20.940;2023-07-13T04:33:57;20.90;99.90
33594;DHT22;19920;52.242;20.940;2023-07-13T04:36:23;21.00;99.90
33594;DHT22;19920;52.242;20.940;2023-07-13T04:38:52;21.00;99.90
33594;DHT22;19920;52.242;20.940;2023-07-13T04:41:20;21.10;99.90
33594;DHT22;19920;52.242;20.940;2023-07-13T04:43:45;21.20;99.90
33594;DHT22;19920;52.242;20.940;2023-07-13T04:46:13;21.20;99.90
33594;DHT22;19920;52.242;20.940;2023-07-13T04:48:39;21.20;99.90
33594;DHT22;19920;52.242;20.940;2023-07-13T04:51:05;21.20;99.90
33594;DHT22;19920;52.242;20.940;2023-07-13T04:53:32;21.20;99.90
33594;DHT22;19920;52.242;20.940;2023-07-13T04:55:59;21.20;99.90
33594;DHT22;19920;52.242;20.940;2023-07-13T04:58:25;21.20;99.90
33594;DHT22;19920;52.242;20.940;2023-07-13T05:00:51;21.20;99.90
33594;DHT22;19920;52.242;20.940;2023-07-13T05:03:17;21.30;99.90
33594;DHT22;19920;52.242;20.940;2023-07-13T05:05:43;21.50;99.90
33594;DHT22;19920;52.242;20.940;2023-07-13T05:08:08;21.50;99.90
33594;DHT22;19920;52.242;20.940;2023-07-13T05:10:35;21.60;99.90
33594;DHT22;19920;52.242;20.940;2023-07-13T05:13:01;21.70;99.90
33594;DHT22;19920;52.242;20.940;2023-07-13T05:15:26;21.70;99.90
33594;DHT22;19920;52.242;20.940;2023-07-13T05:17:52;21.70;99.90
33594;DHT22;19920;52.242;20.940;2023-07-13T05:20:19;21.80;99.90
33594;DHT22;19920;52.242;20.940;2023-07-13T05:22:44;21.70;99.90
33594;DHT22;19920;52.242;20.940;2023-07-13T05:25:12;21.70;99.90
33594;DHT22;19920;52.242;20.940;2023-07-13T05:27:39;21.80;99.90
33594;DHT22;19920;52.242;20.940;2023-07-13T05:30:05;21.80;99.90
33594;DHT22;19920;52.242;20.940;2023-07-13T05:32:31;21.80;99.90
33594;DHT22;19920;52.242;20.940;2023-07-13T05:34:56;21.80;99.90
33594;DHT22;19920;52.242;20.940;2023-07-13T05:37:22;21.90;99.90
33594;DHT22;19920;52.242;20.940;2023-07-13T05:39:48;22.00;99.90
33594;DHT22;19920;52.242;20.940;2023-07-13T05:42:13;22.10;99.90
33594;DHT22;19920;52.242;20.940;2023-07-13T05:44:39;22.20;99.90
33594;DHT22;19920;52.242;20.940;2023-07-13T05:47:05;22.40;99.90
33594;DHT22;19920;52.242;20.940;2023-07-13T05:49:31;22.50;99.90
33594;DHT22;19920;52.242;20.940;2023-07-13T05:51:56;22.60;99.90
33594;DHT22;19920;52.242;20.940;2023-07-13T05:54:22;22.70;99.90
33594;DHT22;19920;52.242;20.940;2023-07-13T05:56:48;22.80;99.90
33594;DHT22;19920;52.242;20.940;2023-07-13T05:59:14;22.90;99.90
33594;DHT22;19920;52.242;20.940;2023-07-13T06:01:40;22.90;99.90
33594;DHT22;19920;52.242;20.940;2023-07-13T06:04:06;23.10;99.90
33594;DHT22;19920;52.242;20.940;2023-07-13T06:06:32;23.20;99.90
33594;DHT22;19920;52.242;20.940;2023-07-13T06:08:57;23.30;99.90
33594;DHT22;19920;52.242;20.940;2023-07-13T06:11:25;23.30;99.90
33594;DHT22;19920;52.242;20.940;2023-07-13T06:13:51;23.20;99.90
33594;DHT22;19920;52.242;20.940;2023-07-13T06:16:17;23.30;99.90
33594;DHT22;19920;52.242;20.940;2023-07-13T06:18:43;23.20;99.90
33594;DHT22;19920;52.242;20.940;2023-07-13T06:21:14;23.00;99.90
33594;DHT22;19920;52.242;20.940;2023-07-13T06:23:39;23.00;99.90
33594;DHT22;19920;52.242;20.940;2023-07-13T06:26:06;23.00;99.90
33594;DHT22;19920;52.242;20.940;2023-07-13T06:28:32;23.10;99.90
33594;DHT22;19920;52.242;20.940;2023-07-13T06:30:59;23.20;99.90
33594;DHT22;19920;52.242;20.940;2023-07-13T06:33:24;23.30;99.90
33594;DHT22;19920;52.242;20.940;2023-07-13T06:35:50;23.50;99.90
33594;DHT22;19920;52.242;20.940;2023-07-13T06:38:16;23.50;99.90
33594;DHT22;19920;52.242;20.940;2023-07-13T06:40:42;23.60;99.90
33594;DHT22;19920;52.242;20.940;2023-07-13T06:43:07;23.50;99.90
33594;DHT22;19920;52.242;20.940;2023-07-13T06:45:40;23.50;99.90
33594;DHT22;19920;52.242;20.940;2023-07-13T06:48:06;23.50;99.90
33594;DHT22;19920;52.242;20.940;2023-07-13T06:50:33;23.70;99.90
33594;DHT22;19920;52.242;20.940;2023-07-13T06:52:59;23.70;99.90
33594;DHT22;19920;52.242;20.940;2023-07-13T06:55:25;23.80;99.90
33594;DHT22;19920;52.242;20.940;2023-07-13T06:57:51;23.80;99.90
33594;DHT22;19920;52.242;20.940;2023-07-13T07:00:17;23.90;99.90
33594;DHT22;19920;52.242;20.940;2023-07-13T07:02:42;24.10;99.90
33594;DHT22;19920;52.242;20.940;2023-07-13T07:05:08;24.00;99.90
33594;DHT22;19920;52.242;20.940;2023-07-13T07:07:35;24.10;99.90
33594;DHT22;19920;52.242;20.940;2023-07-13T07:10:03;24.30;99.90
33594;DHT22;19920;52.242;20.940;2023-07-13T07:12:29;24.30;99.90
33594;DHT22;19920;52.242;20.940;2023-07-13T07:14:55;24.40;99.90
33594;DHT22;19920;52.242;20.940;2023-07-13T07:17:21;24.50;99.90
33594;DHT22;19920;52.242;20.940;2023-07-13T07:19:46;24.50;99.90
33594;DHT22;19920;52.242;20.940;2023-07-13T07:22:12;24.50;99.90
33594;DHT22;19920;52.242;20.940;2023-07-13T07:24:38;24.60;99.90
33594;DHT22;19920;52.242;20.940;2023-07-13T07:27:04;24.70;99.90
33594;DHT22;19920;52.242;20.940;2023-07-13T07:29:29;24.70;99.90
33594;DHT22;19920;52.242;20.940;2023-07-13T07:31:55;24.90;99.90
33594;DHT22;19920;52.242;20.940;2023-07-13T07:34:20;24.90;99.90
33594;DHT22;19920;52.242;20.940;2023-07-13T07:36:46;25.00;99.90
33594;DHT22;19920;52.242;20.940;2023-07-13T07:39:11;25.00;99.90
33594;DHT22;19920;52.242;20.940;2023-07-13T07:41:37;25.00;99.90
33594;DHT22;19920;52.242;20.940;2023-07-13T07:44:04;25.10;99.90
33594;DHT22;19920;52.242;20.940;2023-07-13T07:46:29;25.20;99.90
33594;DHT22;19920;52.242;20.940;2023-07-13T07:48:56;25.20;99.90
33594;DHT22;19920;52.242;20.940;2023-07-13T07:51:21;25.20;99.90
33594;DHT22;19920;52.242;20.940;2023-07-13T07:53:47;25.30;99.90
33594;DHT22;19920;52.242;20.940;2023-07-13T07:56:13;25.40;99.90
33594;DHT22;19920;52.242;20.940;2023-07-13T07:58:41;25.30;99.90
33594;DHT22;19920;52.242;20.940;2023-07-13T08:01:07;25.40;99.90
33594;DHT22;19920;52.242;20.940;2023-07-13T08:03:33;25.30;99.90
33594;DHT22;19920;52.242;20.940;2023-07-13T08:05:59;25.40;99.90
33594;DHT22;19920;52.242;20.940;2023-07-13T08:08:25;25.40;99.90
33594;DHT22;19920;52.242;20.940;2023-07-13T08:10:51;25.40;99.90
33594;DHT22;19920;52.242;20.940;2023-07-13T08:13:17;25.40;99.90
33594;DHT22;19920;52.242;20.940;2023-07-13T08:15:42;25.30;99.90
33594;DHT22;19920;52.242;20.940;2023-07-13T08:18:08;25.40;99.90
33594;DHT22;19920;52.242;20.940;2023-07-13T08:20:40;25.40;99.90
33594;DHT22;19920;52.242;20.940;2023-07-13T08:23:06;25.50;99.90
33594;DHT22;19920;52.242;20.940;2023-07-13T08:25:32;25.60;99.90
33594;DHT22;19920;52.242;20.940;2023-07-13T08:27:57;25.80;99.90
33594;DHT22;19920;52.242;20.940;2023-07-13T08:30:23;25.80;99.90
33594;DHT22;19920;52.242;20.940;2023-07-13T08:32:49;25.80;99.90
33594;DHT22;19920;52.242;20.940;2023-07-13T08:35:15;25.90;99.90
33594;DHT22;19920;52.242;20.940;2023-07-13T08:37:41;26.10;99.90
33594;DHT22;19920;52.242;20.940;2023-07-13T08:40:09;26.10;99.90
33594;DHT22;19920;52.242;20.940;2023-07-13T08:42:55;26.30;99.90
33594;DHT22;19920;52.242;20.940;2023-07-13T08:45:42;26.50;99.90
33594;DHT22;19920;52.242;20.940;2023-07-13T08:48:24;26.90;99.90
33594;DHT22;19920;52.242;20.940;2023-07-13T08:50:54;27.10;99.90
33594;DHT22;19920;52.242;20.940;2023-07-13T08:53:23;27.10;99.90
33594;DHT22;19920;52.242;20.940;2023-07-13T08:55:58;26.90;99.90
33594;DHT22;19920;52.242;20.940;2023-07-13T08:58:25;27.00;99.90
33594;DHT22;19920;52.242;20.940;2023-07-13T09:04:05;26.70;99.90
33594;DHT22;19920;52.242;20.940;2023-07-13T09:06:58;26.90;99.90
33594;DHT22;19920;52.242;20.940;2023-07-13T09:12:11;27.10;99.90
33594;DHT22;19920;52.242;20.940;2023-07-13T09:14:50;27.40;99.90
33594;DHT22;19920;52.242;20.940;2023-07-13T09:17:20;27.70;99.90
33594;DHT22;19920;52.242;20.940;2023-07-13T09:19:59;27.90;99.90
33594;DHT22;19920;52.242;20.940;2023-07-13T09:22:27;27.90;99.90
33594;DHT22;19920;52.242;20.940;2023-07-13T09:25:13;27.70;99.90
33594;DHT22;19920;52.242;20.940;2023-07-13T09:27:46;27.30;99.90
33594;DHT22;19920;52.242;20.940;2023-07-13T09:32:47;27.50;99.90
33594;DHT22;19920;52.242;20.940;2023-07-13T09:35:17;27.40;99.90
33594;DHT22;19920;52.242;20.940;2023-07-13T09:37:45;27.00;99.90
33594;DHT22;19920;52.242;20.940;2023-07-13T09:40:23;26.50;99.90
33594;DHT22;19920;52.242;20.940;2023-07-13T09:42:52;25.80;99.90
33594;DHT22;19920;52.242;20.940;2023-07-13T09:45:28;25.60;99.90
33594;DHT22;19920;52.242;20.940;2023-07-13T09:48:06;25.10;99.90
33594;DHT22;19920;52.242;20.940;2023-07-13T09:50:33;25.10;99.90
33594;DHT22;19920;52.242;20.940;2023-07-13T09:53:00;25.30;99.90
33594;DHT22;19920;52.242;20.940;2023-07-13T09:55:33;25.50;99.90
33594;DHT22;19920;52.242;20.940;2023-07-13T09:58:22;25.70;99.90
33594;DHT22;19920;52.242;20.940;2023-07-13T10:01:00;26.10;99.90
33594;DHT22;19920;52.242;20.940;2023-07-13T10:03:32;26.40;99.90
33594;DHT22;19920;52.242;20.940;2023-07-13T10:06:17;26.40;99.90
33594;DHT22;19920;52.242;20.940;2023-07-13T10:08:45;26.40;99.90
33594;DHT22;19920;52.242;20.940;2023-07-13T10:13:57;25.90;99.90
33594;DHT22;19920;52.242;20.940;2023-07-13T10:16:28;25.40;99.90
33594;DHT22;19920;52.242;20.940;2023-07-13T10:19:00;25.20;99.90
33594;DHT22;19920;52.242;20.940;2023-07-13T10:21:34;25.20;99.90
33594;DHT22;19920;52.242;20.940;2023-07-13T10:24:24;25.10;99.90
33594;DHT22;19920;52.242;20.940;2023-07-13T10:29:41;24.70;99.90
33594;DHT22;19920;52.242;20.940;2023-07-13T10:32:10;24.40;99.90
33594;DHT22;19920;52.242;20.940;2023-07-13T10:34:36;24.10;99.90
33594;DHT22;19920;52.242;20.940;2023-07-13T10:37:03;24.00;99.90
33594;DHT22;19920;52.242;20.940;2023-07-13T10:39:30;23.60;99.90
33594;DHT22;19920;52.242;20.940;2023-07-13T10:42:00;22.90;99.90
33594;DHT22;19920;52.242;20.940;2023-07-13T10:44:32;22.40;99.90
33594;DHT22;19920;52.242;20.940;2023-07-13T10:49:29;21.30;99.90
33594;DHT22;19920;52.242;20.940;2023-07-13T10:51:56;20.90;99.90
33594;DHT22;19920;52.242;20.940;2023-07-13T10:57:20;20.20;99.90
33594;DHT22;19920;52.242;20.940;2023-07-13T10:59:48;20.00;99.90
33594;DHT22;19920;52.242;20.940;2023-07-13T11:02:34;19.70;99.90
33594;DHT22;19920;52.242;20.940;2023-07-13T11:05:18;19.50;99.90
33594;DHT22;19920;52.242;20.940;2023-07-13T11:08:12;19.50;99.90
33594;DHT22;19920;52.242;20.940;2023-07-13T11:10:55;19.30;99.90
33594;DHT22;19920;52.242;20.940;2023-07-13T11:18:50;19.30;99.90
33594;DHT22;19920;52.242;20.940;2023-07-13T11:21:25;19.40;99.90
33594;DHT22;19920;52.242;20.940;2023-07-13T11:24:03;19.40;99.90
33594;DHT22;19920;52.242;20.940;2023-07-13T11:31:40;19.50;99.90
33594;DHT22;19920;52.242;20.940;2023-07-13T11:34:14;19.50;99.90
33594;DHT22;19920;52.242;20.940;2023-07-13T11:36:43;19.50;99.90
33594;DHT22;19920;52.242;20.940;2023-07-13T11:39:26;19.50;99.90
33594;DHT22;19920;52.242;20.940;2023-07-13T11:41:58;19.50;99.90
33594;DHT22;19920;52.242;20.940;2023-07-13T11:44:26;19.40;99.90
33594;DHT22;19920;52.242;20.940;2023-07-13T11:47:00;19.20;99.90
33594;DHT22;19920;52.242;20.940;2023-07-13T11:49:30;19.10;99.90
33594;DHT22;19920;52.242;20.940;2023-07-13T11:51:57;18.90;99.90
33594;DHT22;19920;52.242;20.940;2023-07-13T11:54:33;18.90;99.90
33594;DHT22;19920;52.242;20.940;2023-07-13T11:57:12;19.00;99.90
33594;DHT22;19920;52.242;20.940;2023-07-13T11:59:43;19.10;99.90
33594;DHT22;19920;52.242;20.940;2023-07-13T12:02:18;19.10;99.90
33594;DHT22;19920;52.242;20.940;2023-07-13T12:04:49;19.10;99.90
33594;DHT22;19920;52.242;20.940;2023-07-13T12:07:18;19.10;99.90
33594;DHT22;19920;52.242;20.940;2023-07-13T12:09:44;19.20;99.90
33594;DHT22;19920;52.242;20.940;2023-07-13T12:12:16;19.30;99.90
33594;DHT22;19920;52.242;20.940;2023-07-13T12:14:42;19.40;99.90
33594;DHT22;19920;52.242;20.940;2023-07-13T12:17:16;19.40;99.90
33594;DHT22;19920;52.242;20.940;2023-07-13T12:19:43;19.50;99.90
33594;DHT22;19920;52.242;20.940;2023-07-13T12:22:12;19.70;99.90
33594;DHT22;19920;52.242;20.940;2023-07-13T12:24:39;19.70;99.90
33594;DHT22;19920;52.242;20.940;2023-07-13T12:27:05;19.60;99.90
33594;DHT22;19920;52.242;20.940;2023-07-13T12:29:32;19.70;99.90
33594;DHT22;19920;52.242;20.940;2023-07-13T12:31:59;19.90;99.90
33594;DHT22;19920;52.242;20.940;2023-07-13T12:34:26;19.90;99.90
33594;DHT22;19920;52.242;20.940;2023-07-13T12:36:54;19.90;99.90
33594;DHT22;19920;52.242;20.940;2023-07-13T12:39:23;19.90;99.90
33594;DHT22;19920;52.242;20.940;2023-07-13T12:41:51;19.80;99.90
33594;DHT22;19920;52.242;20.940;2023-07-13T12:44:26;19.90;99.90
33594;DHT22;19920;52.242;20.940;2023-07-13T12:47:03;19.90;99.90
33594;DHT22;19920;52.242;20.940;2023-07-13T12:49:32;19.80;99.90
33594;DHT22;19920;52.242;20.940;2023-07-13T12:52:03;19.80;99.90
33594;DHT22;19920;52.242;20.940;2023-07-13T12:54:30;19.80;99.90
33594;DHT22;19920;52.242;20.940;2023-07-13T12:56:57;20.00;99.90
33594;DHT22;19920;52.242;20.940;2023-07-13T12:59:28;20.00;99.90
33594;DHT22;19920;52.242;20.940;2023-07-13T13:01:54;20.00;99.90
33594;DHT22;19920;52.242;20.940;2023-07-13T13:04:20;20.20;99.90
33594;DHT22;19920;52.242;20.940;2023-07-13T13:06:47;20.20;99.90
33594;DHT22;19920;52.242;20.940;2023-07-13T13:09:14;20.20;99.90
33594;DHT22;19920;52.242;20.940;2023-07-13T13:11:40;20.30;99.90
33594;DHT22;19920;52.242;20.940;2023-07-13T13:14:07;20.40;99.90
33594;DHT22;19920;52.242;20.940;2023-07-13T13:16:47;20.50;99.90
33594;DHT22;19920;52.242;20.940;2023-07-13T13:19:18;20.60;99.90
33594;DHT22;19920;52.242;20.940;2023-07-13T13:21:46;20.60;99.90
33594;DHT22;19920;52.242;20.940;2023-07-13T13:24:16;20.70;99.90
33594;DHT22;19920;52.242;20.940;2023-07-13T13:26:43;20.60;99.90
33594;DHT22;19920;52.242;20.940;2023-07-13T13:29:20;20.70;99.90
33594;DHT22;19920;52.242;20.940;2023-07-13T13:31:46;20.80;99.90
33594;DHT22;19920;52.242;20.940;2023-07-13T13:34:16;20.80;99.90
33594;DHT22;19920;52.242;20.940;2023-07-13T13:36:42;20.70;99.90
33594;DHT22;19920;52.242;20.940;2023-07-13T13:39:25;20.70;99.90
33594;DHT22;19920;52.242;20.940;2023-07-13T13:41:53;20.70;99.90
33594;DHT22;19920;52.242;20.940;2023-07-13T13:44:20;20.60;99.90
33594;DHT22;19920;52.242;20.940;2023-07-13T13:46:51;20.70;99.90
33594;DHT22;19920;52.242;20.940;2023-07-13T13:49:26;20.80;99.90
33594;DHT22;19920;52.242;20.940;2023-07-13T13:51:55;20.80;99.90
33594;DHT22;19920;52.242;20.940;2023-07-13T13:54:22;20.90;99.90
33594;DHT22;19920;52.242;20.940;2023-07-13T13:56:50;20.80;99.90
33594;DHT22;19920;52.242;20.940;2023-07-13T13:59:16;21.00;99.90
33594;DHT22;19920;52.242;20.940;2023-07-13T14:01:44;21.10;99.90
33594;DHT22;19920;52.242;20.940;2023-07-13T14:04:27;21.20;99.90
33594;DHT22;19920;52.242;20.940;2023-07-13T14:06:53;21.20;99.90
33594;DHT22;19920;52.242;20.940;2023-07-13T14:09:19;21.20;99.90
33594;DHT22;19920;52.242;20.940;2023-07-13T14:11:47;21.20;99.90
33594;DHT22;19920;52.242;20.940;2023-07-13T14:14:19;21.20;99.90
33594;DHT22;19920;52.242;20.940;2023-07-13T14:16:45;21.20;99.90
33594;DHT22;19920;52.242;20.940;2023-07-13T14:19:18;21.10;99.90
33594;DHT22;19920;52.242;20.940;2023-07-13T14:21:44;21.10;99.90
33594;DHT22;19920;52.242;20.940;2023-07-13T14:24:10;21.10;99.90
33594;DHT22;19920;52.242;20.940;2023-07-13T14:26:38;21.20;99.90
33594;DHT22;19920;52.242;20.940;2023-07-13T14:29:11;21.10;99.90
33594;DHT22;19920;52.242;20.940;2023-07-13T14:31:38;21.10;99.90
33594;DHT22;19920;52.242;20.940;2023-07-13T14:34:04;21.20;99.90
33594;DHT22;19920;52.242;20.940;2023-07-13T14:36:41;21.20;99.90
33594;DHT22;19920;52.242;20.940;2023-07-13T14:39:20;21.30;99.90
33594;DHT22;19920;52.242;20.940;2023-07-13T14:41:50;21.40;99.90
33594;DHT22;19920;52.242;20.940;2023-07-13T14:44:19;21.40;99.90
33594;DHT22;19920;52.242;20.940;2023-07-13T14:46:47;21.40;99.90
33594;DHT22;19920;52.242;20.940;2023-07-13T14:49:32;21.40;99.90
33594;DHT22;19920;52.242;20.940;2023-07-13T14:52:00;21.40;99.90
33594;DHT22;19920;52.242;20.940;2023-07-13T14:54:26;21.30;99.90
33594;DHT22;19920;52.242;20.940;2023-07-13T14:56:52;21.30;99.90
33594;DHT22;19920;52.242;20.940;2023-07-13T14:59:17;21.20;99.90
33594;DHT22;19920;52.242;20.940;2023-07-13T15:01:47;21.20;99.90
33594;DHT22;19920;52.242;20.940;2023-07-13T15:04:13;21.30;99.90
33594;DHT22;19920;52.242;20.940;2023-07-13T15:07:02;21.30;99.90
33594;DHT22;19920;52.242;20.940;2023-07-13T15:09:28;21.20;99.90
33594;DHT22;19920;52.242;20.940;2023-07-13T15:11:57;21.20;99.90
33594;DHT22;19920;52.242;20.940;2023-07-13T15:14:24;21.20;99.90
33594;DHT22;19920;52.242;20.940;2023-07-13T15:16:54;21.20;99.90
33594;DHT22;19920;52.242;20.940;2023-07-13T15:19:21;21.20;99.90
33594;DHT22;19920;52.242;20.940;2023-07-13T15:21:49;21.10;99.90
33594;DHT22;19920;52.242;20.940;2023-07-13T15:24:15;21.10;99.90
33594;DHT22;19920;52.242;20.940;2023-07-13T15:26:42;21.00;99.90
33594;DHT22;19920;52.242;20.940;2023-07-13T15:29:14;21.00;99.90
33594;DHT22;19920;52.242;20.940;2023-07-13T15:31:39;20.90;99.90
33594;DHT22;19920;52.242;20.940;2023-07-13T15:34:11;20.90;99.90
33594;DHT22;19920;52.242;20.940;2023-07-13T15:36:38;20.80;99.90
33594;DHT22;19920;52.242;20.940;2023-07-13T15:39:04;20.70;99.90
33594;DHT22;19920;52.242;20.940;2023-07-13T15:41:31;20.80;99.90
33594;DHT22;19920;52.242;20.940;2023-07-13T15:43:58;20.80;99.90
33594;DHT22;19920;52.242;20.940;2023-07-13T15:46:24;20.80;99.90
33594;DHT22;19920;52.242;20.940;2023-07-13T15:48:52;20.70;99.90
33594;DHT22;19920;52.242;20.940;2023-07-13T15:51:24;20.70;99.90
33594;DHT22;19920;52.242;20.940;2023-07-13T15:53:53;20.70;99.90